• Join FlightAware (Why Join?)
  • Login
  • US Flag 
08:27PM EDT


 

Airport Tracker/Info


-or-


 

Live Flight TrackerFlight Track Log ✈ LXJ327 ✈ 08-Jul-2013 ✈ KICT - KPSP

Flight Track Log - Related Links

Times and Time Zones

All times are in EDT time to prevent confusion due to time zone crossing. See the LXJ327 flight status page for this flight to view local times or setup timezone preferences in your user account.

Time Position Orientation Groundspeed Altitude Reporting Facility
EDT Latitude Longitude Course Direction KTS MPH feet Rate Location/Type
02:03PM 37.6344 -97.4314 226° Southwest 156 180 2,100  Level Kansas City Center
02:04PM 37.6011 -97.4750 226° Southwest 224 258 4,100 2,700 Climbing Kansas City Center
02:05PM 37.5992 -97.5586 268° West 248 285 7,400 2,700 Climbing Kansas City Center
02:06PM 37.6106 -97.6575 278° West 280 322 9,800 2,460 Climbing Kansas City Center
02:07PM 37.6233 -97.7658 279° West 306 352 12,600 2,700 Climbing Kansas City Center
02:08PM 37.6350 -97.8831 277° West 307 353 15,500 2,040 Climbing Kansas City Center
02:09PM 37.6475 -97.9914 278° West 309 356 16,900 720 Climbing Kansas City Center
02:11PM 37.6636 -98.1303 278° West 361 415 17,000  Climbing Kansas City Center
02:12PM 37.6767 -98.2497 278° West 396 456 17,000  Level Kansas City Center
02:13PM 37.6936 -98.3986 278° West 420 483 17,000  Level Kansas City Center
02:14PM 37.7111 -98.5769 277° West 426 490 17,100 900 Climbing Kansas City Center
02:15PM 37.7267 -98.7200 278° West 417 480 18,900 1,740 Climbing Kansas City Center
02:16PM 37.7406 -98.8544 277° West 394 453 20,800 1,560 Climbing Kansas City Center
02:17PM 37.7539 -98.9886 277° West 386 444 22,200 1,020 Climbing Kansas City Center
02:18PM 37.7672 -99.1253 277° West 390 449 23,000 360 Climbing Kansas City Center
02:19PM 37.7819 -99.2706 277° West 410 472 23,000 480 Level Kansas City Center
02:20PM 37.8003 -99.4514 277° West 428 493 24,100 960 Climbing Kansas City Center
02:21PM 37.8186 -99.6328 277° West 424 488 25,300 960 Climbing Kansas City Center
02:22PM 37.8333 -99.7736 278° West 423 487 26,200 900 Climbing Kansas City Center
02:23PM 37.8481 -99.9350 277° West 415 478 27,200 780 Climbing Kansas City Center
02:24PM 37.8603 -100.0742 276° West 416 479 27,900 660 Climbing Kansas City Center
02:25PM 37.8761 -100.2361 277° West 418 481 28,600 540 Climbing Kansas City Center
02:26PM 37.8889 -100.3761 277° West 417 480 29,100 480 Climbing Kansas City Center
02:27PM 37.9042 -100.5403 277° West 421 484 29,600 480 Climbing Kansas City Center
02:28PM 37.9172 -100.6806 277° West 423 487 30,100 480 Climbing Kansas City Center
02:29PM 37.9336 -100.8461 277° West 427 491 30,700 480 Climbing Kansas City Center
02:30PM 37.9503 -100.9856 279° West 424 488 31,100 480 Climbing Kansas City Center
02:31PM 37.9689 -101.1497 278° West 425 489 31,700 480 Climbing Kansas City Center
02:32PM 37.9842 -101.2906 278° West 425 489 32,100 480 Climbing Kansas City Center
02:33PM 38.0031 -101.4542 278° West 423 487 32,700 480 Climbing Kansas City Center
02:35PM 38.0181 -101.5933 278° West 420 483 33,100 480 Climbing Kansas City Center
02:36PM 38.0356 -101.7567 278° West 418 481 33,700 420 Climbing Kansas City Center
02:37PM 38.0314 -101.8944 268° West 420 483 34,000 120 Climbing Kansas City Center
02:38PM 37.9964 -102.0542 255° West 421 484 34,000  Level Kansas City Center
02:39PM 37.9661 -102.1950 255° West 429 494 34,000  Level Kansas City Center
02:40PM 37.9350 -102.3619 257° West 436 502 34,000  Level Kansas City Center
02:41PM 37.9283 -102.5108 267° West 443 510 34,000  Level Kansas City Center
02:42PM 37.9183 -102.6817 266° West 438 504 34,000  Level Kansas City Center
02:43PM 37.9103 -102.8300 266° West 441 507 34,000  Level Kansas City Center
02:44PM 37.9006 -103.0003 266° West 436 502 34,000  Level Kansas City Center
02:45PM 37.8914 -103.1986 267° West 431 496 34,000  Level Denver Center
02:46PM 37.8853 -103.3428 267° West 429 494 34,000  Level Denver Center
02:47PM 37.8789 -103.5103 267° West 428 493 34,000  Level Denver Center
02:48PM 37.8717 -103.6558 266° West 433 498 34,000  Level Denver Center
02:49PM 37.8642 -103.8258 267° West 436 502 34,000  Level Denver Center
02:50PM 37.8583 -103.9711 267° West 437 503 34,000  Level Denver Center
02:52PM 37.8497 -104.1642 267° West 435 501 34,000  Level Denver Center
02:53PM 37.8394 -104.3083 265° West 435 501 34,000  Level Denver Center
02:54PM 37.8181 -104.4750 261° West 433 498 34,000  Level Denver Center
02:55PM 37.8019 -104.6183 262° West 432 497 34,000  Level Denver Center
02:56PM 37.7853 -104.7617 262° West 432 497 34,000  Level Denver Center
02:57PM 37.7647 -104.9300 261° West 435 501 34,000  Level Denver Center
02:58PM 37.7358 -105.0967 258° West 438 504 34,000  Level Denver Center
02:59PM 37.7011 -105.2350 252° West 432 497 34,000  Level Denver Center
03:00PM 37.6506 -105.3911 248° West 435 501 34,000  Level Denver Center
03:01PM 37.5814 -105.5083 233° Southwest 436 502 34,000  Level Denver Center
03:02PM 37.5081 -105.6314 233° Southwest 438 504 34,000  Level Denver Center
03:03PM 37.4219 -105.7639 231° Southwest 437 503 34,000  Level Denver Center
03:04PM 37.3547 -105.8853 235° Southwest 441 507 34,000  Level Denver Center
03:05PM 37.2578 -106.0022 224° Southwest 434 499 34,000  Level Denver Center
03:06PM 37.1617 -106.0853 215° Southwest 440 506 34,000  Level Denver Center
03:07PM 37.0933 -106.2333 240° Southwest 438 504 34,000  Level Denver Center
03:08PM 37.0528 -106.3986 253° West 443 510 34,000  Level Denver Center
03:09PM 37.0125 -106.5633 253° West 444 511 34,000  Level Denver Center
03:10PM 36.9783 -106.7042 253° West 443 510 34,000  Level Denver Center
03:11PM 36.9367 -106.8692 253° West 444 511 34,000  Level Denver Center
03:12PM 36.9031 -107.0094 253° West 442 509 34,000  Level Denver Center
03:13PM 36.8622 -107.1717 253° West 440 506 34,000  Level Denver Center
03:14PM 36.8267 -107.3114 252° West 440 506 34,000  Level Denver Center
03:15PM 36.7861 -107.4742 253° West 441 507 34,000  Level Denver Center
03:17PM 36.7517 -107.6128 253° West 438 504 34,000  Level Denver Center
03:18PM 36.6964 -107.7386 241° Southwest 435 501 34,000  Level Denver Center
03:19PM 36.5864 -107.8428 217° Southwest 445 512 34,000  Level Denver Center
03:20PM 36.4933 -107.9328 218° Southwest 441 507 34,000  Level Denver Center
03:21PM 36.3825 -108.0358 217° Southwest 443 510 34,000  Level Denver Center
03:22PM 36.2889 -108.1253 218° Southwest 443 510 34,000  Level Denver Center
03:23PM 36.1633 -108.2444 217° Southwest 443 510 34,000  Level Denver Center
03:24PM 36.0686 -108.3347 218° Southwest 445 512 34,000  Level Denver Center
03:25PM 35.9606 -108.4436 219° Southwest 445 512 34,000  Level Albuquerque Center
03:26PM 35.8692 -108.5372 220° Southwest 443 510 34,000  Level Albuquerque Center
03:27PM 35.7694 -108.6567 224° Southwest 443 510 34,000  Level Albuquerque Center
03:28PM 35.7036 -108.7792 237° Southwest 448 516 34,000  Level Albuquerque Center
03:29PM 35.6669 -108.9181 252° West 444 511 34,000  Level Albuquerque Center
03:30PM 35.6431 -109.0875 260° West 447 514 34,000  Level Albuquerque Center
03:31PM 35.6217 -109.2322 260° West 447 514 34,000  Level Albuquerque Center
03:32PM 35.5994 -109.4025 261° West 449 517 34,000  Level Albuquerque Center
03:33PM 35.5781 -109.5464 260° West 447 514 34,000  Level Albuquerque Center
03:34PM 35.5525 -109.7144 259° West 449 517 34,000  Level Albuquerque Center
03:35PM 35.5319 -109.8586 260° West 447 514 34,000  Level Albuquerque Center
03:36PM 35.5114 -110.0019 260° West 445 512 34,000  Level Albuquerque Center
03:37PM 35.4767 -110.1658 255° West 446 513 34,000  Level Albuquerque Center
03:38PM 35.4414 -110.3039 253° West 444 511 34,000  Level Albuquerque Center
03:39PM 35.4014 -110.4661 253° West 445 512 34,000  Level Albuquerque Center
03:40PM 35.3653 -110.6042 252° West 445 512 34,000  Level Albuquerque Center
03:41PM 35.3236 -110.7664 253° West 446 513 34,000  Level Albuquerque Center
03:42PM 35.2881 -110.9044 253° West 445 512 34,000  Level Albuquerque Center
03:44PM 35.2547 -111.0444 254° West 447 514 34,000  Level Albuquerque Center
03:45PM 35.2183 -111.1961 254° West 454 522 34,000  Level Albuquerque Center
03:46PM 35.1814 -111.3378 252° West 446 513 34,000  Level Albuquerque Center
03:47PM 35.1439 -111.4811 252° West 444 511 34,000  Level Albuquerque Center
03:48PM 35.0997 -111.6531 253° West 444 511 34,000  Level Albuquerque Center
03:49PM 35.0636 -111.7869 252° West 444 511 34,000  Level Albuquerque Center
03:50PM 35.0264 -111.9303 252° West 444 511 34,000  Level Albuquerque Center
03:51PM 34.9892 -112.0722 252° West 443 510 34,000  Level Albuquerque Center
03:52PM 34.9431 -112.2425 252° West 442 509 34,000  Level Albuquerque Center
03:53PM 34.9056 -112.3853 252° West 442 509 34,000  Level Albuquerque Center
03:54PM 34.8664 -112.5278 252° West 444 511 34,000  Level Albuquerque Center
03:55PM 34.8283 -112.6706 252° West 443 510 34,000  Level Albuquerque Center
03:56PM 34.7892 -112.8128 251° West 444 511 34,000  Level Albuquerque Center
03:57PM 34.7508 -112.9536 252° West 441 507 34,000  Level Albuquerque Center
03:58PM 34.7122 -113.0958 252° West 442 509 34,000  Level Albuquerque Center
03:59PM 34.6647 -113.2661 251° West 443 510 34,000  Level Albuquerque Center
04:00PM 34.6264 -113.4081 252° West 445 512 34,000 -660 Level Albuquerque Center
04:01PM 34.5878 -113.5489 252° West 444 511 32,700 -1,560 Descending Albuquerque Center
04:02PM 34.5464 -113.6919 251° West 443 510 30,900 -1,320 Descending Albuquerque Center
04:03PM 34.5106 -113.8361 253° West 444 511 30,000 -480 Descending Albuquerque Center
04:04PM 34.4703 -113.9761 251° West 442 509 30,000  Level Albuquerque Center
04:05PM 34.4267 -114.1181 250° West 446 513 30,000  Level Albuquerque Center
04:06PM 34.3814 -114.2619 249° West 453 521 30,000 -420 Level Albuquerque Center
04:07PM 34.3292 -114.4347 250° West 455 524 29,200 -1,200 Descending Albuquerque Center
04:08PM 34.2850 -114.5750 249° West 451 519 27,600 -1,920 Descending Albuquerque Center
04:09PM 34.2456 -114.7075 250° West 441 507 25,300 -2,520 Descending Los Angeles Center
04:10PM 34.2053 -114.8331 249° West 408 470 22,500 -2,820 Descending Los Angeles Center
04:11PM 34.1700 -114.9589 251° West 399 459 19,500 -2,880 Descending Los Angeles Center
04:12PM 34.1361 -115.0836 252° West 392 451 16,600 -3,420 Descending Los Angeles Center
04:13PM 34.0981 -115.2306 253° West 386 444 12,500 -2,760 Descending Los Angeles Center
04:14PM 34.0658 -115.3467 252° West 372 428 10,900 -900 Descending Los Angeles Center
04:15PM 34.0344 -115.4614 252° West 365 420 10,700 -120 Descending Los Angeles Center
04:16PM 34.0047 -115.5733 252° West 356 410 10,700  Level Los Angeles Center
04:18PM 33.9742 -115.6828 251° West 351 404 10,700 60 Level Los Angeles Center
04:19PM 33.9372 -115.8139 251° West 348 400 10,900 60 Climbing Los Angeles Center
04:20PM 33.9214 -115.9208 260° West 334 384 10,900 -540 Level Los Angeles Center
04:21PM 33.9103 -116.0181 262° West 306 352 9,900 -840 Descending Los Angeles Center
04:22PM 33.9036 -116.0975 264° West 273 314 9,200 -1,200 Descending Los Angeles Center
04:23PM 33.8972 -116.1636 263° West 226 260 7,500 -1,140 Descending Los Angeles Center
04:24PM 33.9058 -116.2319 279° West 213 245 6,900 -480 Descending Los Angeles Center
04:25PM 33.9186 -116.3125 281° West 207 238 6,500 -480 Descending Los Angeles Center
04:26PM 33.9197 -116.3719 271° West 204 235 6,000 -1,320 Descending Los Angeles Center
04:28PM 33.8833 -116.5167 253° West 181 208 2,200 -1,560 Descending Southern California TRACON
04:29PM 33.8500 -116.5333 203° Southwest 164 189 900 -1,320 Descending Southern California TRACON
04:31PM 33.8297 -116.5067 168° South  Level Estimated
04:38PM 33.8297 -116.5067 168° South  Level Estimated
04:39PM 33.8297 -116.5067 168° South  Level Estimated